createdAt,value
2022-08-06T00:03:06.517Z,20.07
2022-08-06T00:08:10.561Z,20.29
2022-08-06T00:13:16.114Z,20.30
2022-08-06T00:18:20.533Z,20.16
2022-08-06T00:23:25.260Z,20.03
2022-08-06T00:28:32.095Z,20.16
2022-08-06T00:33:49.982Z,20.27
2022-08-06T00:39:07.586Z,20.05
2022-08-06T00:44:15.506Z,19.76
2022-08-06T00:49:49.037Z,19.78
2022-08-06T00:54:54.280Z,19.25
2022-08-06T00:59:59.689Z,19.11
2022-08-06T01:05:33.427Z,19.58
2022-08-06T01:10:41.887Z,19.35
2022-08-06T01:16:09.198Z,19.57
2022-08-06T01:22:00.763Z,19.75
2022-08-06T01:27:19.393Z,20.02
2022-08-06T01:32:31.594Z,19.77
2022-08-06T01:37:40.811Z,19.75
2022-08-06T01:42:54.460Z,19.73
2022-08-06T01:48:03.345Z,19.97
2022-08-06T01:53:15.815Z,19.39
2022-08-06T01:58:30.295Z,19.16
2022-08-06T02:03:49.554Z,19.36
2022-08-06T02:08:57.672Z,19.20
2022-08-06T02:14:04.189Z,19.46
2022-08-06T02:19:13.571Z,19.54
2022-08-06T02:24:20.882Z,19.87
2022-08-06T02:29:47.543Z,19.85
2022-08-06T02:34:55.804Z,19.87
2022-08-06T02:40:08.297Z,20.11
2022-08-06T02:45:21.390Z,19.97
2022-08-06T02:50:33.496Z,19.99
2022-08-06T02:55:47.248Z,19.22
2022-08-06T03:00:56.411Z,19.16
2022-08-06T03:06:03.103Z,19.19
2022-08-06T03:11:09.815Z,19.18
2022-08-06T03:16:23.149Z,19.02
2022-08-06T03:21:34.368Z,19.01
2022-08-06T03:26:43.973Z,19.06
2022-08-06T03:31:58.506Z,19.20
2022-08-06T03:37:08.074Z,19.55
2022-08-06T03:42:12.895Z,19.34
2022-08-06T03:47:30.716Z,19.43
2022-08-06T03:52:42.304Z,19.47
2022-08-06T03:57:50.635Z,19.67
2022-08-06T04:02:57.734Z,19.41
2022-08-06T04:08:08.403Z,19.08
2022-08-06T04:14:03.474Z,19.63
2022-08-06T04:18:42.055Z,19.39
2022-08-06T04:23:46.769Z,19.21
2022-08-06T04:28:58.115Z,19.48
2022-08-06T04:34:05.309Z,19.71
2022-08-06T04:39:20.902Z,19.37
2022-08-06T04:44:30.192Z,19.51
2022-08-06T04:50:01.550Z,19.72
2022-08-06T04:55:00.739Z,19.66
2022-08-06T05:00:06.860Z,19.29
2022-08-06T05:05:22.345Z,19.07
2022-08-06T05:10:37.475Z,19.35
2022-08-06T05:15:51.289Z,19.96
2022-08-06T05:20:59.284Z,20.29
2022-08-06T05:26:04.476Z,20.48
2022-08-06T05:31:11.729Z,20.76
2022-08-06T05:36:19.719Z,20.86
2022-08-06T05:41:24.672Z,21.05
2022-08-06T05:46:38.507Z,21.34
2022-08-06T05:51:52.184Z,21.56
2022-08-06T05:57:05.092Z,21.62
2022-08-06T06:02:12.057Z,21.82
2022-08-06T06:08:09.234Z,22.08
2022-08-06T06:12:43.760Z,22.31
2022-08-06T06:18:01.920Z,22.61
2022-08-06T06:23:16.355Z,22.81
2022-08-06T06:28:30.760Z,23.08
2022-08-06T06:33:51.018Z,23.32
2022-08-06T06:39:05.720Z,23.54
2022-08-06T06:45:03.229Z,23.71
2022-08-06T06:50:04.016Z,23.94
2022-08-06T06:55:26.845Z,24.16
2022-08-06T07:00:46.419Z,24.42
2022-08-06T07:06:04.057Z,24.59
2022-08-06T07:11:12.906Z,24.74
2022-08-06T07:16:35.876Z,24.87
2022-08-06T07:21:47.759Z,25.22
2022-08-06T07:26:58.513Z,25.31
2022-08-06T07:32:03.174Z,25.33
2022-08-06T07:37:14.982Z,25.49
2022-08-06T07:42:24.951Z,25.89
2022-08-06T07:47:37.206Z,26.27
2022-08-06T07:52:51.196Z,26.66
2022-08-06T07:57:59.418Z,26.80
2022-08-06T08:03:56.301Z,27.10
2022-08-06T08:08:47.326Z,27.48
2022-08-06T08:13:56.712Z,27.84
2022-08-06T08:19:05.303Z,28.40
2022-08-06T08:24:11.079Z,28.67
2022-08-06T08:29:17.942Z,28.59
2022-08-06T08:34:33.796Z,28.49
2022-08-06T08:39:38.064Z,29.37
2022-08-06T08:44:45.666Z,30.06
2022-08-06T08:49:58.377Z,29.87
2022-08-06T08:57:07.596Z,29.42
2022-08-06T09:00:31.013Z,29.10
2022-08-06T09:05:36.700Z,29.02
2022-08-06T09:10:41.478Z,29.13
2022-08-06T09:15:49.337Z,29.14
2022-08-06T09:20:58.084Z,29.36
2022-08-06T09:26:06.620Z,29.46
2022-08-06T09:31:22.421Z,30.10
2022-08-06T09:36:45.571Z,29.66
2022-08-06T09:41:54.038Z,29.66
2022-08-06T09:47:01.327Z,30.12
2022-08-06T09:52:14.974Z,30.15
2022-08-06T09:57:34.670Z,30.50
2022-08-06T10:02:50.762Z,30.77
2022-08-06T10:08:07.176Z,30.19
2022-08-06T10:13:26.274Z,30.32
2022-08-06T10:18:55.710Z,29.75
2022-08-06T10:24:05.957Z,30.39
2022-08-06T10:29:10.356Z,31.33
2022-08-06T10:34:31.230Z,32.03
2022-08-06T10:40:09.635Z,31.39
2022-08-06T10:45:12.644Z,31.75
2022-08-06T10:50:34.052Z,31.89
2022-08-06T10:55:44.586Z,31.57
2022-08-06T11:00:56.153Z,31.96
2022-08-06T11:06:20.691Z,32.35
2022-08-06T11:12:05.343Z,32.92
2022-08-06T11:17:13.411Z,32.95
2022-08-06T11:22:54.054Z,33.57
2022-08-06T11:28:05.332Z,33.53
2022-08-06T11:33:11.239Z,33.80
2022-08-06T11:38:38.967Z,33.37
2022-08-06T11:44:07.686Z,33.04
2022-08-06T11:49:17.952Z,32.91
2022-08-06T11:54:28.548Z,32.08
2022-08-06T11:59:37.693Z,31.77
2022-08-06T12:04:43.768Z,32.02
2022-08-06T12:10:01.935Z,31.82
2022-08-06T12:15:59.061Z,32.68
2022-08-06T12:21:11.653Z,33.17
2022-08-06T12:26:33.313Z,33.23
2022-08-06T12:31:48.677Z,33.69
2022-08-06T12:36:57.797Z,33.69
2022-08-06T12:42:04.932Z,33.72
2022-08-06T12:47:14.122Z,33.03
2022-08-06T12:52:29.555Z,32.64
2022-08-06T12:57:58.932Z,32.32
2022-08-06T13:03:01.566Z,31.46
2022-08-06T13:08:07.056Z,31.49
2022-08-06T13:14:13.393Z,31.26
2022-08-06T13:18:47.617Z,30.97
2022-08-06T13:23:54.388Z,30.78
2022-08-06T13:30:35.015Z,30.75
2022-08-06T13:34:48.824Z,30.72
2022-08-06T13:39:53.923Z,31.23
2022-08-06T13:45:01.135Z,31.22
2022-08-06T13:50:08.329Z,31.39
2022-08-06T13:55:14.187Z,31.61
2022-08-06T14:00:21.980Z,31.72
2022-08-06T14:05:26.397Z,31.71
2022-08-06T14:10:30.508Z,31.67
2022-08-06T14:15:42.314Z,31.81
2022-08-06T14:20:47.122Z,31.47
2022-08-06T14:26:00.097Z,31.64
2022-08-06T14:31:10.560Z,31.47
2022-08-06T14:36:15.274Z,31.43
2022-08-06T14:41:50.578Z,31.42
2022-08-06T14:46:59.633Z,31.12
2022-08-06T14:52:19.884Z,31.16
2022-08-06T14:57:41.345Z,30.90
2022-08-06T15:02:53.091Z,31.00
2022-08-06T15:07:59.355Z,30.60
2022-08-06T15:13:06.126Z,30.66
2022-08-06T15:18:40.466Z,30.72
2022-08-06T15:23:52.873Z,30.60
2022-08-06T15:28:57.640Z,30.45
2022-08-06T15:34:06.959Z,30.40
2022-08-06T15:39:11.965Z,30.26
2022-08-06T15:44:18.156Z,30.06
2022-08-06T15:49:26.050Z,30.08
2022-08-06T15:54:48.091Z,30.12
2022-08-06T15:59:56.282Z,30.19
2022-08-06T16:05:02.683Z,29.95
2022-08-06T16:10:11.209Z,29.68
2022-08-06T16:15:30.433Z,29.48
2022-08-06T16:20:43.892Z,29.43
2022-08-06T16:26:09.404Z,29.15
2022-08-06T16:31:15.533Z,28.99
2022-08-06T16:36:21.327Z,28.75
2022-08-06T16:41:58.577Z,28.60
2022-08-06T16:47:01.623Z,28.40
2022-08-06T16:52:41.830Z,28.32
2022-08-06T17:03:01.216Z,28.22
2022-08-06T17:08:16.965Z,28.10
2022-08-06T17:13:38.276Z,27.89
2022-08-06T17:24:32.619Z,27.72
2022-08-06T17:35:13.944Z,27.68
2022-08-06T17:40:32.598Z,27.49
2022-08-06T17:45:38.192Z,27.39
2022-08-06T17:50:42.762Z,27.45
2022-08-06T17:56:00.225Z,27.24
2022-08-06T18:01:09.623Z,26.96
2022-08-06T18:06:16.704Z,26.82
2022-08-06T18:11:22.654Z,26.83
2022-08-06T18:16:30.129Z,26.53
2022-08-06T18:21:34.649Z,26.41
2022-08-06T18:26:40.242Z,26.44
2022-08-06T18:32:00.329Z,26.28
2022-08-06T18:37:19.816Z,26.18
2022-08-06T18:42:26.920Z,26.14
2022-08-06T18:47:34.802Z,26.09
2022-08-06T18:52:44.929Z,25.99
2022-08-06T18:58:04.452Z,26.01
2022-08-06T19:03:15.690Z,25.85
2022-08-06T19:08:29.172Z,25.81
2022-08-06T19:14:17.509Z,25.72
2022-08-06T19:18:59.452Z,25.75
2022-08-06T19:24:34.669Z,25.68
2022-08-06T19:29:58.019Z,25.58
2022-08-06T19:34:55.958Z,25.50
2022-08-06T19:40:14.432Z,25.47
2022-08-06T19:46:30.163Z,25.34
2022-08-06T19:50:50.911Z,25.21
2022-08-06T19:56:08.334Z,25.22
2022-08-06T20:01:31.044Z,25.12
2022-08-06T20:07:01.777Z,24.97
2022-08-06T20:12:07.150Z,24.10
2022-08-06T20:17:16.669Z,24.23
2022-08-06T20:22:21.549Z,24.34
2022-08-06T20:27:37.930Z,24.43
2022-08-06T20:32:44.728Z,24.33
2022-08-06T20:37:58.069Z,24.37
2022-08-06T20:44:06.556Z,24.14
2022-08-06T20:48:39.808Z,24.27
2022-08-06T20:53:56.390Z,24.10
2022-08-06T20:59:06.602Z,23.93
2022-08-06T21:05:16.553Z,23.55
2022-08-06T21:09:38.104Z,23.55
2022-08-06T21:14:42.712Z,23.61
2022-08-06T21:20:15.784Z,23.52
2022-08-06T21:25:14.674Z,23.46
2022-08-06T21:30:29.705Z,23.57
2022-08-06T21:35:37.109Z,23.37
2022-08-06T21:40:49.464Z,23.35
2022-08-06T21:46:04.715Z,23.44
2022-08-06T21:51:11.009Z,23.52
2022-08-06T21:56:37.361Z,23.52
2022-08-06T22:02:09.706Z,23.53
2022-08-06T22:07:09.302Z,23.58
2022-08-06T22:12:36.853Z,23.48
2022-08-06T22:18:01.401Z,23.45
2022-08-06T22:23:06.068Z,23.35
2022-08-06T22:28:23.798Z,23.49
2022-08-06T22:33:59.100Z,23.31
2022-08-06T22:39:02.266Z,23.37
2022-08-06T22:44:07.812Z,23.04
2022-08-06T22:49:18.693Z,23.16
2022-08-06T22:54:57.570Z,23.21
2022-08-06T23:00:11.902Z,23.45
2022-08-06T23:05:18.107Z,23.16
2022-08-06T23:10:25.513Z,23.17
2022-08-06T23:15:40.979Z,23.27
2022-08-06T23:20:51.130Z,23.18
2022-08-06T23:26:00.396Z,23.07
2022-08-06T23:31:07.312Z,23.20
2022-08-06T23:36:15.394Z,23.09
2022-08-06T23:41:24.475Z,22.98
2022-08-06T23:46:51.358Z,23.10
2022-08-06T23:52:04.758Z,23.07
2022-08-06T23:57:47.972Z,23.24
